createdAt,value
2018-12-01T00:00:20.705Z,23.90
2018-12-01T00:02:48.012Z,27.62
2018-12-01T00:05:15.397Z,24.65
2018-12-01T00:07:42.778Z,23.00
2018-12-01T00:10:10.339Z,24.80
2018-12-01T00:12:37.638Z,28.65
2018-12-01T00:15:06.433Z,23.52
2018-12-01T00:17:33.722Z,23.90
2018-12-01T00:20:01.161Z,22.80
2018-12-01T00:22:28.513Z,25.20
2018-12-01T00:24:55.842Z,26.60
2018-12-01T00:27:23.155Z,23.20
2018-12-01T00:29:50.494Z,26.70
2018-12-01T00:32:17.798Z,27.52
2018-12-01T00:34:45.251Z,27.75
2018-12-01T00:37:12.953Z,25.23
2018-12-01T00:39:40.274Z,25.35
2018-12-01T00:42:07.618Z,19.40
2018-12-01T00:44:34.907Z,24.57
2018-12-01T00:47:02.216Z,23.27
2018-12-01T00:49:29.524Z,22.27
2018-12-01T00:51:56.839Z,25.12
2018-12-01T00:54:24.229Z,29.87
2018-12-01T00:56:51.529Z,23.32
2018-12-01T00:59:18.904Z,19.07
2018-12-01T01:01:46.217Z,20.55
2018-12-01T01:04:13.939Z,20.75
2018-12-01T01:06:41.229Z,22.20
2018-12-01T01:09:08.570Z,27.00
2018-12-01T01:11:35.947Z,29.15
2018-12-01T01:14:03.244Z,24.05
2018-12-01T01:16:30.589Z,22.73
2018-12-01T01:18:57.959Z,22.15
2018-12-01T01:21:25.349Z,23.25
2018-12-01T01:23:52.656Z,21.55
2018-12-01T01:26:19.956Z,28.32
2018-12-01T01:28:47.264Z,23.62
2018-12-01T01:31:14.604Z,24.80
2018-12-01T01:33:41.929Z,26.65
2018-12-01T01:36:09.204Z,22.77
2018-12-01T01:38:36.513Z,22.17
2018-12-01T01:41:08.470Z,22.35
2018-12-01T01:43:36.200Z,19.98
2018-12-01T01:46:03.574Z,28.20
2018-12-01T01:48:31.001Z,22.60
2018-12-01T01:50:58.512Z,24.52
2018-12-01T01:53:25.952Z,22.42
2018-12-01T01:55:53.309Z,23.05
2018-12-01T01:58:20.762Z,27.07
2018-12-01T02:00:48.713Z,24.05
2018-12-01T02:03:16.041Z,22.70
2018-12-01T02:05:43.446Z,23.60
2018-12-01T02:08:10.802Z,24.72
2018-12-01T02:10:38.200Z,28.02
2018-12-01T02:13:05.528Z,23.57
2018-12-01T02:15:32.882Z,26.62
2018-12-01T02:18:00.289Z,25.25
2018-12-01T02:20:27.593Z,25.35
2018-12-01T02:22:54.979Z,29.65
2018-12-01T02:25:22.348Z,26.40
2018-12-01T02:27:49.739Z,22.90
2018-12-01T02:30:18.620Z,29.92
2018-12-01T02:32:46.187Z,26.02
2018-12-01T02:35:14.296Z,24.52
2018-12-01T02:37:41.565Z,26.33
2018-12-01T02:40:09.528Z,26.30
2018-12-01T02:42:36.813Z,24.45
2018-12-01T02:45:09.930Z,25.35
2018-12-01T02:47:37.220Z,25.17
2018-12-01T02:50:05.612Z,23.07
2018-12-01T02:52:33.009Z,27.58
2018-12-01T02:55:00.341Z,22.98
2018-12-01T02:57:27.668Z,25.68
2018-12-01T02:59:55.046Z,25.45
2018-12-01T03:02:24.390Z,25.45
2018-12-01T03:04:52.136Z,24.57
2018-12-01T03:07:19.478Z,25.97
2018-12-01T03:09:46.808Z,30.20
2018-12-01T03:12:14.180Z,22.48
2018-12-01T03:14:41.563Z,24.15
2018-12-01T03:17:09.070Z,25.48
2018-12-01T03:19:36.428Z,29.32
2018-12-01T03:22:03.844Z,25.08
2018-12-01T03:24:31.185Z,27.95
2018-12-01T03:26:58.613Z,25.65
2018-12-01T03:29:26.409Z,25.90
2018-12-01T03:31:53.787Z,25.48
2018-12-01T03:34:21.172Z,24.65
2018-12-01T03:36:48.487Z,22.35
2018-12-01T03:39:15.792Z,26.25
2018-12-01T03:41:43.150Z,25.52
2018-12-01T03:44:10.480Z,27.27
2018-12-01T03:46:37.899Z,22.10
2018-12-01T03:49:05.312Z,25.60
2018-12-01T03:51:32.678Z,21.45
2018-12-01T03:54:00.124Z,25.08
2018-12-01T03:56:28.040Z,20.80
2018-12-01T03:58:55.387Z,21.45
2018-12-01T04:01:22.741Z,25.10
2018-12-01T04:03:50.167Z,24.77
2018-12-01T04:06:17.554Z,21.35
2018-12-01T04:08:44.862Z,26.40
2018-12-01T04:11:12.188Z,23.00
2018-12-01T04:13:39.507Z,25.55
2018-12-01T04:16:06.807Z,19.07
2018-12-01T04:18:34.307Z,22.65
2018-12-01T04:21:01.667Z,25.20
2018-12-01T04:23:29.220Z,26.97
2018-12-01T04:25:56.569Z,26.68
2018-12-01T04:28:23.946Z,24.87
2018-12-01T04:30:51.281Z,25.27
2018-12-01T04:33:18.616Z,27.45
2018-12-01T04:35:46.122Z,25.08
2018-12-01T04:38:14.364Z,21.35
2018-12-01T04:40:41.693Z,24.20
2018-12-01T04:43:09.017Z,23.22
2018-12-01T04:45:36.314Z,24.37
2018-12-01T04:48:08.171Z,26.17
2018-12-01T04:50:35.769Z,26.15
2018-12-01T04:53:03.135Z,23.80
2018-12-01T04:55:30.464Z,23.75
2018-12-01T04:57:57.828Z,23.83
2018-12-01T05:00:25.880Z,22.73
2018-12-01T05:02:53.222Z,22.07
2018-12-01T05:05:21.036Z,19.70
2018-12-01T05:07:48.427Z,23.57
2018-12-01T05:10:16.125Z,18.90
2018-12-01T05:12:43.448Z,22.25
2018-12-01T05:15:11.342Z,22.62
2018-12-01T05:17:38.737Z,20.27
2018-12-01T05:20:08.289Z,26.85
2018-12-01T05:22:35.791Z,21.55
2018-12-01T05:25:03.356Z,22.90
2018-12-01T05:27:30.720Z,20.35
2018-12-01T05:29:58.034Z,25.20
2018-12-01T05:32:25.412Z,25.35
2018-12-01T05:34:53.143Z,26.07
2018-12-01T05:37:24.700Z,26.10
2018-12-01T05:39:52.008Z,22.82
2018-12-01T05:42:19.319Z,24.82
2018-12-01T05:44:46.656Z,21.80
2018-12-01T05:47:13.961Z,23.18
2018-12-01T05:49:41.281Z,27.30
2018-12-01T05:52:08.641Z,23.73
2018-12-01T05:54:36.372Z,20.37
2018-12-01T05:57:03.833Z,22.22
2018-12-01T05:59:31.182Z,19.42
2018-12-01T06:01:58.553Z,21.80
2018-12-01T06:04:25.860Z,21.75
2018-12-01T06:06:53.221Z,25.68
2018-12-01T06:09:20.556Z,23.80
2018-12-01T06:11:47.882Z,29.18
2018-12-01T06:14:15.208Z,22.52
2018-12-01T06:16:42.508Z,21.95
2018-12-01T06:19:09.873Z,18.32
2018-12-01T06:21:38.058Z,20.05
2018-12-01T06:24:05.456Z,21.07
2018-12-01T06:26:32.719Z,25.02
2018-12-01T06:29:00.000Z,26.80
2018-12-01T06:31:27.313Z,22.10
2018-12-01T06:33:54.623Z,21.82
2018-12-01T06:36:21.963Z,20.72
2018-12-01T06:38:49.307Z,27.32
2018-12-01T06:41:16.631Z,20.12
2018-12-01T06:43:44.127Z,18.80
2018-12-01T06:46:12.148Z,20.40
2018-12-01T06:48:39.549Z,20.65
2018-12-01T06:51:06.909Z,20.68
2018-12-01T06:53:34.290Z,18.40
2018-12-01T06:56:01.672Z,21.75
2018-12-01T06:58:29.001Z,24.07
2018-12-01T07:00:56.381Z,19.45
2018-12-01T07:03:23.732Z,18.90
2018-12-01T07:05:51.146Z,19.70
2018-12-01T07:08:18.475Z,19.45
2018-12-01T07:10:45.897Z,20.52
2018-12-01T07:13:13.236Z,24.40
2018-12-01T07:15:40.718Z,18.70
2018-12-01T07:18:13.867Z,19.25
2018-12-01T07:20:41.158Z,23.35
2018-12-01T07:23:08.468Z,22.70
2018-12-01T07:25:35.810Z,20.45
2018-12-01T07:28:03.412Z,19.12
2018-12-01T07:30:30.732Z,18.67
2018-12-01T07:32:58.031Z,19.00
2018-12-01T07:35:25.316Z,19.30
2018-12-01T07:37:52.715Z,18.17
2018-12-01T07:40:19.993Z,28.62
2018-12-01T07:42:47.318Z,24.15
2018-12-01T07:45:15.058Z,21.90
2018-12-01T07:47:42.353Z,22.60
2018-12-01T07:50:11.348Z,18.95
2018-12-01T07:52:38.644Z,22.95
2018-12-01T07:55:06.077Z,22.05
2018-12-01T07:57:33.357Z,22.50
2018-12-01T08:00:00.648Z,21.80
2018-12-01T08:02:27.956Z,20.15
2018-12-01T08:04:55.302Z,19.50
2018-12-01T08:07:22.616Z,26.93
2018-12-01T08:09:49.908Z,19.85
2018-12-01T08:12:17.194Z,21.20
2018-12-01T08:14:44.484Z,22.87
2018-12-01T08:17:11.776Z,23.30
2018-12-01T08:19:39.079Z,25.68
2018-12-01T08:22:06.343Z,17.65
2018-12-01T08:24:33.653Z,17.10
2018-12-01T08:27:00.905Z,23.07
2018-12-01T08:29:28.207Z,20.57
2018-12-01T08:31:55.517Z,19.00
2018-12-01T08:34:22.820Z,20.85
2018-12-01T08:36:50.429Z,20.77
2018-12-01T08:39:17.748Z,21.17
2018-12-01T08:41:45.029Z,18.48
2018-12-01T08:44:12.329Z,18.60
2018-12-01T08:46:39.633Z,19.35
2018-12-01T08:49:06.937Z,25.40
2018-12-01T08:51:34.263Z,22.82
2018-12-01T08:54:01.551Z,20.37
2018-12-01T08:56:28.864Z,20.62
2018-12-01T08:58:56.141Z,18.98
2018-12-01T09:01:23.471Z,22.50
2018-12-01T09:03:50.786Z,21.07
2018-12-01T09:06:18.093Z,25.27
2018-12-01T09:08:45.375Z,20.72
2018-12-01T09:11:12.690Z,24.07
2018-12-01T09:13:39.993Z,25.20
2018-12-01T09:16:07.457Z,22.67
2018-12-01T09:18:34.799Z,18.23
2018-12-01T09:21:02.113Z,17.65
2018-12-01T09:23:29.445Z,19.05
2018-12-01T09:25:56.740Z,20.70
2018-12-01T09:28:24.036Z,17.37
2018-12-01T09:30:51.335Z,18.48
2018-12-01T09:33:18.636Z,15.58
2018-12-01T09:35:45.893Z,16.27
2018-12-01T09:38:13.242Z,20.00
2018-12-01T09:40:40.645Z,15.15
2018-12-01T09:43:08.008Z,19.87
2018-12-01T09:45:35.285Z,20.92
2018-12-01T09:48:02.592Z,21.10
2018-12-01T09:50:29.864Z,16.82
2018-12-01T09:52:57.407Z,20.20
2018-12-01T09:55:26.231Z,18.85
2018-12-01T09:57:53.699Z,17.90
2018-12-01T10:00:28.361Z,17.60
2018-12-01T10:02:55.889Z,17.67
2018-12-01T10:05:23.268Z,18.35
2018-12-01T10:07:50.621Z,21.27
2018-12-01T10:10:18.477Z,24.85
2018-12-01T10:12:46.237Z,16.52
2018-12-01T10:15:16.117Z,17.80
2018-12-01T10:17:43.450Z,18.70
2018-12-01T10:20:11.476Z,17.35
2018-12-01T10:22:38.786Z,18.30
2018-12-01T10:25:07.541Z,17.98
2018-12-01T10:27:34.826Z,18.50
2018-12-01T10:30:02.154Z,19.17
2018-12-01T10:32:29.423Z,19.17
2018-12-01T10:34:56.745Z,21.48
2018-12-01T10:37:24.144Z,18.92
2018-12-01T10:39:51.441Z,15.05
2018-12-01T10:42:18.755Z,17.37
2018-12-01T10:44:46.066Z,16.73
2018-12-01T10:47:13.368Z,16.30
2018-12-01T10:49:40.675Z,17.77
2018-12-01T10:52:07.993Z,16.67
2018-12-01T10:54:35.283Z,16.30
2018-12-01T10:57:02.604Z,17.52
2018-12-01T10:59:30.016Z,20.08
2018-12-01T11:02:02.666Z,18.10
2018-12-01T11:04:35.339Z,18.60
2018-12-01T11:07:02.732Z,15.95
2018-12-01T11:09:30.004Z,17.55
2018-12-01T11:11:57.471Z,15.32
2018-12-01T11:14:24.822Z,16.85
2018-12-01T11:16:58.895Z,19.57
2018-12-01T11:19:26.258Z,18.17
2018-12-01T11:21:53.644Z,16.95
2018-12-01T11:24:20.988Z,18.30
2018-12-01T11:26:48.288Z,16.00
2018-12-01T11:29:15.585Z,18.98
2018-12-01T11:31:43.015Z,19.00
2018-12-01T11:34:10.346Z,16.20
2018-12-01T11:36:37.692Z,19.25
2018-12-01T11:39:06.523Z,18.20
2018-12-01T11:41:33.845Z,16.27
2018-12-01T11:44:01.152Z,16.23
2018-12-01T11:46:28.475Z,22.32
2018-12-01T11:48:56.436Z,17.52
2018-12-01T11:51:23.873Z,17.70
2018-12-01T11:53:51.221Z,16.97
2018-12-01T11:56:18.532Z,17.77
2018-12-01T11:58:45.844Z,17.12
2018-12-01T12:01:13.191Z,18.92
2018-12-01T12:03:40.582Z,15.98
2018-12-01T12:06:07.965Z,17.98
2018-12-01T12:08:35.301Z,18.73
2018-12-01T12:11:02.694Z,17.00
2018-12-01T12:13:30.028Z,16.50
2018-12-01T12:15:57.435Z,19.52
2018-12-01T12:18:24.790Z,17.50
2018-12-01T12:20:52.151Z,16.12
2018-12-01T12:23:19.559Z,16.90
2018-12-01T12:25:46.883Z,16.90
2018-12-01T12:28:14.244Z,17.52
2018-12-01T12:30:41.651Z,16.70
2018-12-01T12:33:08.969Z,16.32
2018-12-01T12:35:36.317Z,18.23
2018-12-01T12:38:03.678Z,14.70
2018-12-01T12:40:30.974Z,17.65
2018-12-01T12:42:58.987Z,20.17
2018-12-01T12:45:30.454Z,15.60
2018-12-01T12:47:58.493Z,15.78
2018-12-01T12:50:25.916Z,16.67
2018-12-01T12:52:54.694Z,18.98
2018-12-01T12:55:22.750Z,16.80
2018-12-01T12:57:50.089Z,14.23
2018-12-01T13:00:17.825Z,14.33
2018-12-01T13:02:47.728Z,15.32
2018-12-01T13:05:15.738Z,16.30
2018-12-01T13:07:43.189Z,14.80
2018-12-01T13:10:11.209Z,18.57
2018-12-01T13:12:38.562Z,15.35
2018-12-01T13:15:07.734Z,15.78
2018-12-01T13:17:35.044Z,16.27
2018-12-01T13:20:02.434Z,15.05
2018-12-01T13:22:29.834Z,17.10
2018-12-01T13:24:57.120Z,15.58
2018-12-01T13:27:24.521Z,16.45
2018-12-01T13:29:51.832Z,21.50
2018-12-01T13:32:19.332Z,15.45
2018-12-01T13:34:46.680Z,14.07
2018-12-01T13:37:13.968Z,15.23
2018-12-01T13:39:41.280Z,16.45
2018-12-01T13:42:08.570Z,15.10
2018-12-01T13:44:35.887Z,14.75
2018-12-01T13:47:03.190Z,15.05
2018-12-01T13:49:30.509Z,15.53
2018-12-01T13:51:57.789Z,16.65
2018-12-01T13:54:25.236Z,15.55
2018-12-01T13:56:52.534Z,15.90
2018-12-01T13:59:19.896Z,17.62
2018-12-01T14:01:47.205Z,15.20
2018-12-01T14:04:14.808Z,15.40
2018-12-01T14:06:42.116Z,20.70
2018-12-01T14:09:09.410Z,16.90
2018-12-01T14:11:36.733Z,14.30
2018-12-01T14:14:04.079Z,14.85
2018-12-01T14:16:31.383Z,15.00
2018-12-01T14:18:58.661Z,15.53
2018-12-01T14:21:26.068Z,15.65
2018-12-01T14:23:53.357Z,15.38
2018-12-01T14:26:20.661Z,16.70
2018-12-01T14:28:47.965Z,15.65
2018-12-01T14:31:15.681Z,15.65
2018-12-01T14:33:43.039Z,15.65
2018-12-01T14:36:10.402Z,15.38
2018-12-01T14:38:37.796Z,15.38
2018-12-01T14:41:05.614Z,14.55
2018-12-01T14:43:32.920Z,17.82
2018-12-01T14:46:00.253Z,15.23
2018-12-01T14:48:27.580Z,15.28
2018-12-01T14:50:54.868Z,16.27
2018-12-01T14:53:22.301Z,15.75
2018-12-01T14:55:49.600Z,16.75
2018-12-01T14:58:17.172Z,17.45
2018-12-01T15:00:44.514Z,17.98
2018-12-01T15:03:11.915Z,17.52
2018-12-01T15:05:39.864Z,16.80
2018-12-01T15:08:07.323Z,15.20
2018-12-01T15:10:34.629Z,14.78
2018-12-01T15:13:01.958Z,17.80
2018-12-01T15:15:29.350Z,16.70
2018-12-01T15:17:56.925Z,18.62
2018-12-01T15:20:25.586Z,14.60
2018-12-01T15:22:54.435Z,46.48
2018-12-01T15:25:22.441Z,54.33
2018-12-01T15:27:49.884Z,20.52
2018-12-01T15:30:18.657Z,71.92
2018-12-01T15:32:50.976Z,182.10
2018-12-01T15:35:18.311Z,108.03
2018-12-01T15:37:45.605Z,42.53
2018-12-01T15:40:14.516Z,24.02
2018-12-01T15:42:41.948Z,15.35
2018-12-01T15:45:10.090Z,15.65
2018-12-01T15:47:37.429Z,15.65
2018-12-01T15:50:05.797Z,16.17
2018-12-01T15:52:33.175Z,15.23
2018-12-01T15:55:00.500Z,15.03
2018-12-01T15:57:27.853Z,16.93
2018-12-01T15:59:55.277Z,17.75
2018-12-01T16:02:22.812Z,19.73
2018-12-01T16:04:50.299Z,22.10
2018-12-01T16:07:17.611Z,16.77
2018-12-01T16:09:44.965Z,15.95
2018-12-01T16:12:12.210Z,15.38
2018-12-01T16:14:39.539Z,14.93
2018-12-01T16:17:06.915Z,14.13
2018-12-01T16:19:34.259Z,15.45
2018-12-01T16:22:01.576Z,14.70
2018-12-01T16:24:28.973Z,15.72
2018-12-01T16:26:56.288Z,16.23
2018-12-01T16:29:23.694Z,16.48
2018-12-01T16:31:51.069Z,14.10
2018-12-01T16:34:18.453Z,15.28
2018-12-01T16:36:45.972Z,21.15
2018-12-01T16:39:13.312Z,15.05
2018-12-01T16:41:40.684Z,14.70
2018-12-01T16:44:07.980Z,16.62
2018-12-01T16:46:35.349Z,14.35
2018-12-01T16:49:02.700Z,14.53
2018-12-01T16:51:30.037Z,16.00
2018-12-01T16:53:57.346Z,14.75
2018-12-01T16:56:24.653Z,15.68
2018-12-01T16:58:52.004Z,16.95
2018-12-01T17:01:19.338Z,14.93
2018-12-01T17:03:46.764Z,14.70
2018-12-01T17:06:15.245Z,16.07
2018-12-01T17:08:42.836Z,15.53
2018-12-01T17:11:10.355Z,15.98
2018-12-01T17:13:37.748Z,16.80
2018-12-01T17:16:05.377Z,16.60
2018-12-01T17:18:32.716Z,16.30
2018-12-01T17:21:00.076Z,14.38
2018-12-01T17:23:27.434Z,13.43
2018-12-01T17:25:54.740Z,16.07
2018-12-01T17:28:22.095Z,17.67
2018-12-01T17:30:49.718Z,13.68
2018-12-01T17:33:17.125Z,14.80
2018-12-01T17:35:44.420Z,18.73
2018-12-01T17:38:12.543Z,15.10
2018-12-01T17:40:42.708Z,15.95
2018-12-01T17:43:11.001Z,15.78
2018-12-01T17:45:38.326Z,15.58
2018-12-01T17:48:06.157Z,15.70
2018-12-01T17:50:33.469Z,14.87
2018-12-01T17:53:00.949Z,15.88
2018-12-01T17:55:28.890Z,16.10
2018-12-01T17:57:56.246Z,14.43
2018-12-01T18:00:24.408Z,17.45
2018-12-01T18:02:52.506Z,15.93
2018-12-01T18:05:20.905Z,13.80
2018-12-01T18:07:48.274Z,13.60
2018-12-01T18:10:15.795Z,14.95
2018-12-01T18:12:43.376Z,13.50
2018-12-01T18:15:13.376Z,15.40
2018-12-01T18:17:40.709Z,14.35
2018-12-01T18:20:13.291Z,15.13
2018-12-01T18:22:40.612Z,15.18
2018-12-01T18:25:08.564Z,14.90
2018-12-01T18:27:35.983Z,16.30
2018-12-01T18:30:03.429Z,13.55
2018-12-01T18:32:30.852Z,14.07
2018-12-01T18:34:58.260Z,19.62
2018-12-01T18:37:25.663Z,14.18
2018-12-01T18:39:53.867Z,14.83
2018-12-01T18:42:21.292Z,16.55
2018-12-01T18:44:48.783Z,14.25
2018-12-01T18:47:16.212Z,16.00
2018-12-01T18:49:43.556Z,13.93
2018-12-01T18:52:10.952Z,12.75
2018-12-01T18:54:38.499Z,16.17
2018-12-01T18:57:05.821Z,14.03
2018-12-01T18:59:33.147Z,15.93
2018-12-01T19:02:00.543Z,13.28
2018-12-01T19:04:27.885Z,15.83
2018-12-01T19:06:55.241Z,13.28
2018-12-01T19:09:22.577Z,16.62
2018-12-01T19:11:49.928Z,15.55
2018-12-01T19:14:17.293Z,13.35
2018-12-01T19:16:44.672Z,14.78
2018-12-01T19:19:12.086Z,13.85
2018-12-01T19:21:39.556Z,12.80
2018-12-01T19:24:06.976Z,13.10
2018-12-01T19:26:34.354Z,13.50
2018-12-01T19:29:01.815Z,13.58
2018-12-01T19:31:29.124Z,13.38
2018-12-01T19:33:57.041Z,14.05
2018-12-01T19:36:24.425Z,12.98
2018-12-01T19:38:51.816Z,14.87
2018-12-01T19:41:19.226Z,14.75
2018-12-01T19:43:46.594Z,13.83
2018-12-01T19:46:13.963Z,11.93
2018-12-01T19:48:41.803Z,13.25
2018-12-01T19:51:09.174Z,11.95
2018-12-01T19:53:36.496Z,11.83
2018-12-01T19:56:03.905Z,12.82
2018-12-01T19:58:35.473Z,13.28
2018-12-01T20:01:02.820Z,13.05
2018-12-01T20:03:30.830Z,12.90
2018-12-01T20:05:58.188Z,13.10
2018-12-01T20:08:25.534Z,14.70
2018-12-01T20:11:00.404Z,12.43
2018-12-01T20:13:29.498Z,13.18
2018-12-01T20:15:58.042Z,12.60
2018-12-01T20:18:26.197Z,11.95
2018-12-01T20:20:53.632Z,13.90
2018-12-01T20:23:20.999Z,12.47
2018-12-01T20:25:48.979Z,12.65
2018-12-01T20:28:16.741Z,13.45
2018-12-01T20:30:44.823Z,11.80
2018-12-01T20:33:12.481Z,12.40
2018-12-01T20:35:42.124Z,13.75
2018-12-01T20:38:12.876Z,11.80
2018-12-01T20:40:40.227Z,15.35
2018-12-01T20:43:07.654Z,12.43
2018-12-01T20:45:35.007Z,12.53
2018-12-01T20:48:03.350Z,11.50
2018-12-01T20:50:29.680Z,12.85
2018-12-01T20:52:57.084Z,13.08
2018-12-01T20:55:26.379Z,14.43
2018-12-01T20:57:54.978Z,12.55
2018-12-01T21:00:22.357Z,12.30
2018-12-01T21:02:49.794Z,11.80
2018-12-01T21:05:18.444Z,11.95
2018-12-01T21:07:46.548Z,12.20
2018-12-01T21:10:15.850Z,12.30
2018-12-01T21:12:43.479Z,12.18
2018-12-01T21:15:11.872Z,12.30
2018-12-01T21:17:40.081Z,13.13
2018-12-01T21:20:12.350Z,13.75
2018-12-01T21:22:40.060Z,12.07
2018-12-01T21:25:09.082Z,14.40
2018-12-01T21:27:36.724Z,12.35
2018-12-01T21:30:05.317Z,12.88
2018-12-01T21:32:32.943Z,12.60
2018-12-01T21:35:01.557Z,13.55
2018-12-01T21:37:29.166Z,12.80
2018-12-01T21:39:56.851Z,11.97
2018-12-01T21:42:24.189Z,13.15
2018-12-01T21:44:51.579Z,14.07
2018-12-01T21:47:18.974Z,12.53
2018-12-01T21:49:46.327Z,12.65
2018-12-01T21:52:13.724Z,12.15
2018-12-01T21:54:41.166Z,12.73
2018-12-01T21:57:08.485Z,12.65
2018-12-01T21:59:35.811Z,12.60
2018-12-01T22:02:08.787Z,13.48
2018-12-01T22:04:36.202Z,13.15
2018-12-01T22:07:04.553Z,13.40
2018-12-01T22:09:31.915Z,12.98
2018-12-01T22:12:01.602Z,11.63
2018-12-01T22:14:29.125Z,11.80
2018-12-01T22:16:56.547Z,12.00
2018-12-01T22:19:23.927Z,12.10
2018-12-01T22:21:51.366Z,11.53
2018-12-01T22:24:18.765Z,12.10
2018-12-01T22:26:46.169Z,11.50
2018-12-01T22:29:13.487Z,13.78
2018-12-01T22:31:40.777Z,12.43
2018-12-01T22:34:08.196Z,11.83
2018-12-01T22:36:35.604Z,12.23
2018-12-01T22:39:03.462Z,11.75
2018-12-01T22:41:30.826Z,12.00
2018-12-01T22:43:58.173Z,11.57
2018-12-01T22:46:25.465Z,11.70
2018-12-01T22:48:53.282Z,12.53
2018-12-01T22:51:20.649Z,12.05
2018-12-01T22:53:48.004Z,11.00
2018-12-01T22:56:15.278Z,11.70
2018-12-01T22:58:42.639Z,11.48
2018-12-01T23:01:10.009Z,11.25
2018-12-01T23:03:39.092Z,11.78
2018-12-01T23:06:06.515Z,12.18
2018-12-01T23:08:33.816Z,11.90
2018-12-01T23:11:01.138Z,11.60
2018-12-01T23:13:28.497Z,10.90
2018-12-01T23:15:56.106Z,11.33
2018-12-01T23:18:24.144Z,12.13
2018-12-01T23:20:51.480Z,11.63
2018-12-01T23:23:18.794Z,12.20
2018-12-01T23:25:46.177Z,11.60
2018-12-01T23:28:13.539Z,12.40
2018-12-01T23:30:41.912Z,13.22
2018-12-01T23:33:16.960Z,12.20
2018-12-01T23:35:44.397Z,13.15
2018-12-01T23:38:11.823Z,12.37
2018-12-01T23:40:39.621Z,12.45
2018-12-01T23:43:06.956Z,12.25
2018-12-01T23:45:34.278Z,12.20
2018-12-01T23:48:01.632Z,11.15
2018-12-01T23:50:28.991Z,12.50
2018-12-01T23:52:59.905Z,12.40
2018-12-01T23:55:27.315Z,12.55
2018-12-01T23:57:54.712Z,12.60
